• Join FlightAware (Why Join?)
  • Login
  • US Flag 
01:47AM EDT


 

Airport Tracker/Info


-or-


 

Live Flight TrackerFlight Track Log ✈ ASQ5941 ✈ 03-Jul-2013 ✈ KORD - KAVP

Flight Track Log - Related Links

Times and Time Zones

All times are in EDT time to prevent confusion due to time zone crossing. See the ASQ5941 flight status page for this flight to view local times or setup timezone preferences in your user account.

Time Position Orientation Groundspeed Altitude Reporting Facility
EDT Latitude Longitude Course Direction KTS MPH feet Rate Location/Type
03:26PM 42.0167 -87.9333 90° East 207 238 2,400  Level Chicago TRACON
03:27PM 42.0667 -87.8833 37° Northeast 250 288 4,000 1,980 Climbing Chicago TRACON
03:28PM 42.1333 -87.8333 29° Northeast 269 310 6,200 2,100 Climbing Chicago TRACON
03:29PM 42.0595 -87.3050 78° East  Level FlightAware Approximate
03:29PM 42.1500 -87.7333 77° East 280 322 8,300  Level Chicago TRACON
03:30PM 42.0827 -87.1540 78° East  Level FlightAware Approximate
03:31PM 42.1000 -87.0024 90° East  Level FlightAware Approximate
03:31PM 42.1500 -87.6147 90° East 282 325 10,500  Level Chicago Center
03:32PM 42.1167 -86.8528 90° East  Level FlightAware Approximate
03:32PM 42.1422 -87.5028 95° East 296 341 12,600  Level Chicago Center
03:33PM 42.1344 -87.3861 95° East 310 357 13,300 780 Climbing Chicago Center
03:34PM 42.1242 -87.2244 95° East 356 410 14,300 1,020 Climbing Chicago Center
03:35PM 42.1136 -87.0856 96° East 371 427 15,500 1,080 Climbing Chicago Center
03:36PM 42.1164 -86.9414 88° East 384 442 16,600 1,020 Climbing Chicago Center
03:37PM 42.1217 -86.7981 87° East 385 443 17,700 1,200 Climbing Chicago Center
03:38PM 42.1269 -86.6417 87° East 386 444 19,200 1,200 Climbing Chicago Center
03:39PM 42.1328 -86.4925 87° East 396 456 20,300 960 Climbing Chicago Center
03:40PM 42.1372 -86.3428 88° East 402 463 21,300 960 Climbing Chicago Center
03:41PM 42.1425 -86.1900 87° East 407 468 22,400 960 Climbing Chicago Center
03:42PM 42.1436 -86.0358 89° East 410 472 23,300 960 Climbing Chicago Center
03:43PM 42.1425 -85.8608 90° East 415 478 24,400 960 Climbing Chicago Center
03:44PM 42.1406 -85.7017 91° East 427 491 25,400 960 Climbing Chicago Center
03:45PM 42.1394 -85.5419 90° East 428 493 26,500 1,080 Climbing Chicago Center
03:46PM 42.1369 -85.3489 91° East 431 496 27,700 1,080 Climbing Chicago Center
03:47PM 42.1347 -85.1867 91° East 435 501 28,800 1,020 Climbing Chicago Center
03:48PM 42.1336 -85.0244 90° East 436 502 29,900 960 Climbing Chicago Center
03:49PM 42.1306 -84.8647 91° East 431 496 30,900 480 Climbing Chicago Center
03:50PM 42.1269 -84.7003 92° East 442 509 31,000 420 Climbing Chicago Center
03:51PM 42.1239 -84.5269 91° East 460 529 31,800 900 Climbing Chicago Center
03:52PM 42.1406 -84.3186 84° East 471 542 32,900 540 Climbing Chicago Center
03:53PM 42.1600 -84.1425 81° East 478 550 33,000  Climbing Chicago Center
03:54PM 42.1808 -83.9569 81° East 498 573 33,000  Level Chicago Center
03:55PM 42.2003 -83.7681 82° East 509 586 33,000  Level Chicago Center
03:56PM 42.2217 -83.5497 82° East 500 575 33,000  Level Cleveland Center
03:57PM 42.2281 -83.3847 87° East 500 575 33,000  Level Cleveland Center
03:59PM 42.2214 -83.2261 93° East  Level FlightAware Approximate
03:59PM 42.2308 -82.9864 93° East 505 581 33,000  Level Cleveland Center
04:00PM 42.2325 -82.8014 89° East 499 574 33,000  Level Cleveland Center
04:01PM 42.2339 -82.6136 89° East 494 568 33,000  Level Cleveland Center
04:02PM 42.2306 -82.4339 91° East 494 568 33,000 -300 Level Cleveland Center
04:03PM 42.2167 -82.2597 96° East 481 554 32,400 -780 Descending Cleveland Center
04:04PM 42.2067 -82.0800 94° East 476 548 31,500 -720 Descending Cleveland Center
04:05PM 42.1964 -81.9006 94° East 481 554 31,000 -300 Descending Cleveland Center
04:06PM 42.1856 -81.7208 95° East 481 554 31,000  Level Cleveland Center
04:07PM 42.1728 -81.5356 95° East 481 554 31,000  Level Cleveland Center
04:08PM 42.1617 -81.3561 95° East 481 554 31,000  Level Cleveland Center
04:09PM 42.1481 -81.1742 96° East 487 560 31,000  Level Cleveland Center
04:10PM 42.1364 -81.0089 95° East 487 560 31,000  Level Cleveland Center
04:11PM 42.1222 -80.8267 96° East 487 560 31,000  Level Cleveland Center
04:12PM 42.1081 -80.6503 96° East 487 560 31,000  Level Cleveland Center
04:13PM 42.0869 -80.4683 99° East 481 554 31,000  Level Cleveland Center
04:14PM 42.0700 -80.2894 97° East 481 554 31,000  Level Cleveland Center
04:15PM 42.0486 -80.0939 98° East 486 559 31,000  Level Cleveland Center
04:16PM 42.0311 -79.9347 98° East 481 554 31,000  Level Cleveland Center
04:17PM 42.0111 -79.7503 98° East 487 560 31,000  Level Cleveland Center
04:18PM 41.9908 -79.5692 99° East 487 560 31,000  Level Cleveland Center
04:19PM 41.9706 -79.3933 99° East 482 555 31,000 -180 Level Cleveland Center
04:20PM 41.9519 -79.2150 98° East 482 555 30,700 -660 Descending Cleveland Center
04:21PM 41.9308 -79.0342 99° East 482 555 29,700 -960 Descending Cleveland Center
04:22PM 41.9072 -78.8506 100° East 487 560 28,800 -960 Descending Cleveland Center
04:23PM 41.8878 -78.6669 98° East 492 566 27,800 -1,020 Descending Cleveland Center
04:24PM 41.8636 -78.4836 100° East 497 572 26,800 -960 Descending Cleveland Center
04:25PM 41.8414 -78.3033 99° East 497 572 25,900 -960 Descending Cleveland Center
04:26PM 41.8189 -78.1228 99° East 497 572 24,900 -1,020 Descending Cleveland Center
04:27PM 41.7983 -77.9425 99° East 497 572 23,900 -840 Descending Cleveland Center
04:29PM 41.7656 -77.6928 100° East 494 568 23,000 -420 Descending New York Center
04:30PM 41.7422 -77.5181 100° East 484 557 23,000  Level New York Center
04:31PM 41.7219 -77.3603 100° East 479 551 23,000  Level New York Center
04:32PM 41.6944 -77.1742 101° East 473 544 23,000 -240 Level New York Center
04:33PM 41.6725 -77.0000 100° East 473 544 22,600 -1,680 Descending New York Center
04:34PM 41.6503 -76.8283 100° East 473 544 19,700 -3,060 Descending New York Center
04:35PM 41.6269 -76.6708 101° East 452 520 16,500 -3,120 Descending New York Center
04:36PM 41.6069 -76.5219 100° East 425 489 13,500 -2,640 Descending New York Center
04:37PM 41.5869 -76.3789 101° East 401 461 11,200 -1,680 Descending New York Center
04:38PM 41.5731 -76.2722 100° East 346 398 10,200 -1,320 Descending New York Center
04:39PM 41.5553 -76.1600 102° East 312 359 8,700 -1,800 Descending New York Center
04:40PM 41.5183 -76.0572 116° Southeast 283 326 6,700 -1,860 Descending New York Center
04:41PM 41.5228 -75.9550 87° East 269 310 5,000 -1,380 Descending New York Center
04:42PM 41.5272 -75.8558 87° East 269 310 4,000 -540 Descending New York Center
04:43PM 41.5303 -75.7811 87° East 264 304 4,000  Level New York Center
04:44PM 41.5097 -75.6742 104° East 264 304 4,000  Level New York Center
04:45PM 41.4733 -75.5997 123° Southeast 226 260 4,000  Level New York Center